sensor_id;sensor_type;location;lat;lon;timestamp;P1;durP1;ratioP1;P2;durP2;ratioP2
3068;SDS011;1545;51.728;8.796;2022-08-19T00:01:51;22.33;;;14.03;;
3068;SDS011;1545;51.728;8.796;2022-08-19T00:04:20;23.13;;;14.67;;
3068;SDS011;1545;51.728;8.796;2022-08-19T00:06:48;18.70;;;15.00;;
3068;SDS011;1545;51.728;8.796;2022-08-19T00:09:14;23.30;;;15.43;;
3068;SDS011;1545;51.728;8.796;2022-08-19T00:11:42;25.97;;;15.07;;
3068;SDS011;1545;51.728;8.796;2022-08-19T00:14:09;19.63;;;14.77;;
3068;SDS011;1545;51.728;8.796;2022-08-19T00:16:39;19.00;;;14.33;;
3068;SDS011;1545;51.728;8.796;2022-08-19T00:19:06;20.63;;;14.10;;
3068;SDS011;1545;51.728;8.796;2022-08-19T00:21:32;21.70;;;14.20;;
3068;SDS011;1545;51.728;8.796;2022-08-19T00:24:01;16.90;;;13.57;;
3068;SDS011;1545;51.728;8.796;2022-08-19T00:26:27;18.23;;;13.30;;
3068;SDS011;1545;51.728;8.796;2022-08-19T00:28:53;18.30;;;14.40;;
3068;SDS011;1545;51.728;8.796;2022-08-19T00:31:19;22.27;;;15.47;;
3068;SDS011;1545;51.728;8.796;2022-08-19T00:33:44;22.80;;;14.20;;
3068;SDS011;1545;51.728;8.796;2022-08-19T00:36:10;21.20;;;14.87;;
3068;SDS011;1545;51.728;8.796;2022-08-19T00:38:36;20.17;;;14.77;;
3068;SDS011;1545;51.728;8.796;2022-08-19T00:41:04;21.83;;;14.47;;
3068;SDS011;1545;51.728;8.796;2022-08-19T00:43:30;29.13;;;14.73;;
3068;SDS011;1545;51.728;8.796;2022-08-19T00:45:56;24.50;;;14.73;;
3068;SDS011;1545;51.728;8.796;2022-08-19T00:48:21;20.37;;;13.93;;
3068;SDS011;1545;51.728;8.796;2022-08-19T00:50:48;20.27;;;14.07;;
3068;SDS011;1545;51.728;8.796;2022-08-19T00:53:16;23.80;;;15.13;;
3068;SDS011;1545;51.728;8.796;2022-08-19T00:55:48;21.20;;;15.03;;
3068;SDS011;1545;51.728;8.796;2022-08-19T00:58:17;19.20;;;14.60;;
3068;SDS011;1545;51.728;8.796;2022-08-19T01:00:45;22.20;;;15.60;;
3068;SDS011;1545;51.728;8.796;2022-08-19T01:03:13;22.63;;;15.60;;
3068;SDS011;1545;51.728;8.796;2022-08-19T01:05:42;31.10;;;15.80;;
3068;SDS011;1545;51.728;8.796;2022-08-19T01:08:10;25.90;;;15.90;;
3068;SDS011;1545;51.728;8.796;2022-08-19T01:10:37;28.20;;;17.20;;
3068;SDS011;1545;51.728;8.796;2022-08-19T01:13:06;31.20;;;17.10;;
3068;SDS011;1545;51.728;8.796;2022-08-19T01:15:34;25.73;;;15.77;;
3068;SDS011;1545;51.728;8.796;2022-08-19T01:18:06;31.60;;;17.13;;
3068;SDS011;1545;51.728;8.796;2022-08-19T01:20:34;30.60;;;17.77;;
3068;SDS011;1545;51.728;8.796;2022-08-19T01:23:00;28.17;;;16.80;;
3068;SDS011;1545;51.728;8.796;2022-08-19T01:25:27;22.13;;;16.30;;
3068;SDS011;1545;51.728;8.796;2022-08-19T01:27:57;25.67;;;16.23;;
3068;SDS011;1545;51.728;8.796;2022-08-19T01:30:25;30.87;;;17.30;;
3068;SDS011;1545;51.728;8.796;2022-08-19T01:32:53;28.10;;;17.10;;
3068;SDS011;1545;51.728;8.796;2022-08-19T01:35:21;29.70;;;17.43;;
3068;SDS011;1545;51.728;8.796;2022-08-19T01:37:53;27.63;;;18.13;;
3068;SDS011;1545;51.728;8.796;2022-08-19T01:40:25;24.80;;;17.80;;
3068;SDS011;1545;51.728;8.796;2022-08-19T01:42:54;26.03;;;17.07;;
3068;SDS011;1545;51.728;8.796;2022-08-19T01:45:20;31.63;;;17.47;;
3068;SDS011;1545;51.728;8.796;2022-08-19T01:47:47;27.83;;;18.23;;
3068;SDS011;1545;51.728;8.796;2022-08-19T01:50:13;33.57;;;17.87;;
3068;SDS011;1545;51.728;8.796;2022-08-19T01:52:40;27.67;;;17.27;;
3068;SDS011;1545;51.728;8.796;2022-08-19T01:55:07;29.83;;;17.37;;
3068;SDS011;1545;51.728;8.796;2022-08-19T01:57:35;31.60;;;17.10;;
3068;SDS011;1545;51.728;8.796;2022-08-19T02:00:03;28.97;;;17.43;;
3068;SDS011;1545;51.728;8.796;2022-08-19T02:02:31;24.53;;;15.90;;
3068;SDS011;1545;51.728;8.796;2022-08-19T02:04:56;32.23;;;15.80;;
3068;SDS011;1545;51.728;8.796;2022-08-19T02:07:22;32.40;;;17.50;;
3068;SDS011;1545;51.728;8.796;2022-08-19T02:09:48;27.90;;;16.37;;
3068;SDS011;1545;51.728;8.796;2022-08-19T02:12:13;32.00;;;17.53;;
3068;SDS011;1545;51.728;8.796;2022-08-19T02:14:39;31.10;;;18.43;;
3068;SDS011;1545;51.728;8.796;2022-08-19T02:17:05;31.40;;;19.77;;
3068;SDS011;1545;51.728;8.796;2022-08-19T02:19:31;36.03;;;18.87;;
3068;SDS011;1545;51.728;8.796;2022-08-19T02:21:59;34.00;;;19.57;;
3068;SDS011;1545;51.728;8.796;2022-08-19T02:24:25;29.70;;;19.43;;
3068;SDS011;1545;51.728;8.796;2022-08-19T02:26:52;30.97;;;19.27;;
3068;SDS011;1545;51.728;8.796;2022-08-19T02:29:18;35.70;;;20.57;;
3068;SDS011;1545;51.728;8.796;2022-08-19T02:31:43;30.33;;;18.63;;
3068;SDS011;1545;51.728;8.796;2022-08-19T02:34:09;30.50;;;19.07;;
3068;SDS011;1545;51.728;8.796;2022-08-19T02:36:34;34.33;;;19.87;;
3068;SDS011;1545;51.728;8.796;2022-08-19T02:39:00;34.60;;;19.40;;
3068;SDS011;1545;51.728;8.796;2022-08-19T02:41:27;36.00;;;19.80;;
3068;SDS011;1545;51.728;8.796;2022-08-19T02:43:56;42.70;;;20.77;;
3068;SDS011;1545;51.728;8.796;2022-08-19T02:46:26;36.60;;;19.77;;
3068;SDS011;1545;51.728;8.796;2022-08-19T02:48:59;32.13;;;19.23;;
3068;SDS011;1545;51.728;8.796;2022-08-19T02:51:28;36.47;;;19.50;;
3068;SDS011;1545;51.728;8.796;2022-08-19T02:53:55;32.13;;;19.53;;
3068;SDS011;1545;51.728;8.796;2022-08-19T02:56:21;37.67;;;19.63;;
3068;SDS011;1545;51.728;8.796;2022-08-19T02:58:49;32.90;;;19.37;;
3068;SDS011;1545;51.728;8.796;2022-08-19T03:03:51;40.10;;;20.20;;
3068;SDS011;1545;51.728;8.796;2022-08-19T03:06:18;34.17;;;20.37;;
3068;SDS011;1545;51.728;8.796;2022-08-19T03:08:45;40.43;;;20.57;;
3068;SDS011;1545;51.728;8.796;2022-08-19T03:11:16;33.93;;;20.57;;
3068;SDS011;1545;51.728;8.796;2022-08-19T03:13:46;32.40;;;20.37;;
3068;SDS011;1545;51.728;8.796;2022-08-19T03:16:15;30.80;;;20.60;;
3068;SDS011;1545;51.728;8.796;2022-08-19T03:18:51;35.23;;;20.60;;
3068;SDS011;1545;51.728;8.796;2022-08-19T03:21:18;29.03;;;19.37;;
3068;SDS011;1545;51.728;8.796;2022-08-19T03:23:45;36.57;;;22.07;;
3068;SDS011;1545;51.728;8.796;2022-08-19T03:26:11;56.50;;;21.53;;
3068;SDS011;1545;51.728;8.796;2022-08-19T03:28:38;37.13;;;20.20;;
3068;SDS011;1545;51.728;8.796;2022-08-19T03:31:05;31.83;;;21.30;;
3068;SDS011;1545;51.728;8.796;2022-08-19T03:33:33;34.10;;;21.90;;
3068;SDS011;1545;51.728;8.796;2022-08-19T03:36:09;36.17;;;21.30;;
3068;SDS011;1545;51.728;8.796;2022-08-19T03:38:42;45.63;;;22.30;;
3068;SDS011;1545;51.728;8.796;2022-08-19T03:41:11;38.57;;;22.57;;
3068;SDS011;1545;51.728;8.796;2022-08-19T03:43:42;46.43;;;21.67;;
3068;SDS011;1545;51.728;8.796;2022-08-19T03:46:12;35.00;;;22.13;;
3068;SDS011;1545;51.728;8.796;2022-08-19T03:48:39;38.27;;;22.70;;
3068;SDS011;1545;51.728;8.796;2022-08-19T03:51:07;41.00;;;23.07;;
3068;SDS011;1545;51.728;8.796;2022-08-19T03:53:39;41.33;;;23.33;;
3068;SDS011;1545;51.728;8.796;2022-08-19T03:56:07;53.47;;;25.23;;
3068;SDS011;1545;51.728;8.796;2022-08-19T03:58:34;49.10;;;25.17;;
3068;SDS011;1545;51.728;8.796;2022-08-19T04:00:59;54.70;;;28.00;;
3068;SDS011;1545;51.728;8.796;2022-08-19T04:03:25;53.70;;;29.33;;
3068;SDS011;1545;51.728;8.796;2022-08-19T04:05:51;59.03;;;29.97;;
3068;SDS011;1545;51.728;8.796;2022-08-19T04:08:18;59.30;;;30.43;;
3068;SDS011;1545;51.728;8.796;2022-08-19T04:10:47;58.40;;;28.00;;
3068;SDS011;1545;51.728;8.796;2022-08-19T04:13:14;57.40;;;28.43;;
3068;SDS011;1545;51.728;8.796;2022-08-19T04:15:42;53.87;;;29.10;;
3068;SDS011;1545;51.728;8.796;2022-08-19T04:18:09;51.67;;;30.47;;
3068;SDS011;1545;51.728;8.796;2022-08-19T04:20:42;57.50;;;29.60;;
3068;SDS011;1545;51.728;8.796;2022-08-19T04:23:09;57.10;;;29.03;;
3068;SDS011;1545;51.728;8.796;2022-08-19T04:25:39;56.63;;;31.03;;
3068;SDS011;1545;51.728;8.796;2022-08-19T04:28:07;59.03;;;30.23;;
3068;SDS011;1545;51.728;8.796;2022-08-19T04:30:38;68.53;;;32.13;;
3068;SDS011;1545;51.728;8.796;2022-08-19T04:33:05;63.03;;;32.13;;
3068;SDS011;1545;51.728;8.796;2022-08-19T04:35:34;67.37;;;32.30;;
3068;SDS011;1545;51.728;8.796;2022-08-19T04:38:02;65.63;;;33.07;;
3068;SDS011;1545;51.728;8.796;2022-08-19T04:40:27;65.27;;;34.00;;
3068;SDS011;1545;51.728;8.796;2022-08-19T04:43:12;73.20;;;32.47;;
3068;SDS011;1545;51.728;8.796;2022-08-19T04:45:40;82.47;;;33.93;;
3068;SDS011;1545;51.728;8.796;2022-08-19T04:48:09;70.23;;;34.00;;
3068;SDS011;1545;51.728;8.796;2022-08-19T04:50:36;68.20;;;32.30;;
3068;SDS011;1545;51.728;8.796;2022-08-19T04:53:04;70.00;;;33.47;;
3068;SDS011;1545;51.728;8.796;2022-08-19T04:55:30;66.77;;;35.33;;
3068;SDS011;1545;51.728;8.796;2022-08-19T04:57:55;67.23;;;34.13;;
3068;SDS011;1545;51.728;8.796;2022-08-19T05:00:21;75.27;;;35.70;;
3068;SDS011;1545;51.728;8.796;2022-08-19T05:02:47;70.83;;;36.30;;
3068;SDS011;1545;51.728;8.796;2022-08-19T05:05:14;67.67;;;34.47;;
3068;SDS011;1545;51.728;8.796;2022-08-19T05:07:39;75.17;;;36.70;;
3068;SDS011;1545;51.728;8.796;2022-08-19T05:10:06;73.20;;;36.00;;
3068;SDS011;1545;51.728;8.796;2022-08-19T05:12:32;69.57;;;35.50;;
3068;SDS011;1545;51.728;8.796;2022-08-19T05:14:58;68.03;;;33.07;;
3068;SDS011;1545;51.728;8.796;2022-08-19T05:17:24;67.17;;;34.40;;
3068;SDS011;1545;51.728;8.796;2022-08-19T05:19:51;59.83;;;33.20;;
3068;SDS011;1545;51.728;8.796;2022-08-19T05:22:35;64.27;;;32.83;;
3068;SDS011;1545;51.728;8.796;2022-08-19T05:25:03;61.67;;;31.73;;
3068;SDS011;1545;51.728;8.796;2022-08-19T05:27:30;54.40;;;32.23;;
3068;SDS011;1545;51.728;8.796;2022-08-19T05:29:56;63.90;;;31.67;;
3068;SDS011;1545;51.728;8.796;2022-08-19T05:32:22;47.63;;;30.47;;
3068;SDS011;1545;51.728;8.796;2022-08-19T05:34:48;63.23;;;31.00;;
3068;SDS011;1545;51.728;8.796;2022-08-19T05:37:14;51.13;;;30.27;;
3068;SDS011;1545;51.728;8.796;2022-08-19T05:39:39;49.20;;;29.60;;
3068;SDS011;1545;51.728;8.796;2022-08-19T05:42:09;46.73;;;28.50;;
3068;SDS011;1545;51.728;8.796;2022-08-19T05:44:38;43.20;;;27.87;;
3068;SDS011;1545;51.728;8.796;2022-08-19T05:47:09;52.33;;;29.10;;
3068;SDS011;1545;51.728;8.796;2022-08-19T05:49:35;46.47;;;27.57;;
3068;SDS011;1545;51.728;8.796;2022-08-19T05:52:03;44.37;;;25.20;;
3068;SDS011;1545;51.728;8.796;2022-08-19T05:54:33;53.07;;;26.57;;
3068;SDS011;1545;51.728;8.796;2022-08-19T05:57:00;43.80;;;25.60;;
3068;SDS011;1545;51.728;8.796;2022-08-19T05:59:26;44.80;;;25.73;;
3068;SDS011;1545;51.728;8.796;2022-08-19T06:01:52;40.60;;;25.50;;
3068;SDS011;1545;51.728;8.796;2022-08-19T06:04:19;44.80;;;27.93;;
3068;SDS011;1545;51.728;8.796;2022-08-19T06:06:46;40.60;;;25.37;;
3068;SDS011;1545;51.728;8.796;2022-08-19T06:09:13;41.97;;;25.73;;
3068;SDS011;1545;51.728;8.796;2022-08-19T06:11:44;55.80;;;27.40;;
3068;SDS011;1545;51.728;8.796;2022-08-19T06:14:16;47.80;;;26.40;;
3068;SDS011;1545;51.728;8.796;2022-08-19T06:16:44;46.80;;;26.00;;
3068;SDS011;1545;51.728;8.796;2022-08-19T06:19:11;40.23;;;26.60;;
3068;SDS011;1545;51.728;8.796;2022-08-19T06:21:41;59.63;;;29.17;;
3068;SDS011;1545;51.728;8.796;2022-08-19T06:24:10;42.47;;;26.67;;
3068;SDS011;1545;51.728;8.796;2022-08-19T06:26:39;51.63;;;26.30;;
3068;SDS011;1545;51.728;8.796;2022-08-19T06:29:06;46.47;;;26.33;;
3068;SDS011;1545;51.728;8.796;2022-08-19T06:31:34;37.53;;;24.73;;
3068;SDS011;1545;51.728;8.796;2022-08-19T06:34:02;50.57;;;27.03;;
3068;SDS011;1545;51.728;8.796;2022-08-19T06:36:31;45.57;;;27.17;;
3068;SDS011;1545;51.728;8.796;2022-08-19T06:39:03;38.00;;;24.90;;
3068;SDS011;1545;51.728;8.796;2022-08-19T06:41:30;39.63;;;24.37;;
3068;SDS011;1545;51.728;8.796;2022-08-19T06:43:59;46.30;;;25.23;;
3068;SDS011;1545;51.728;8.796;2022-08-19T06:46:24;42.83;;;25.80;;
3068;SDS011;1545;51.728;8.796;2022-08-19T06:48:51;56.40;;;26.40;;
3068;SDS011;1545;51.728;8.796;2022-08-19T06:51:18;48.17;;;26.60;;
3068;SDS011;1545;51.728;8.796;2022-08-19T06:53:44;45.33;;;25.53;;
3068;SDS011;1545;51.728;8.796;2022-08-19T06:56:14;45.83;;;26.80;;
3068;SDS011;1545;51.728;8.796;2022-08-19T06:58:41;48.83;;;26.30;;
3068;SDS011;1545;51.728;8.796;2022-08-19T07:01:07;44.00;;;27.10;;
3068;SDS011;1545;51.728;8.796;2022-08-19T07:03:34;48.43;;;27.47;;
3068;SDS011;1545;51.728;8.796;2022-08-19T07:06:08;39.27;;;25.87;;
3068;SDS011;1545;51.728;8.796;2022-08-19T07:08:36;49.97;;;28.20;;
3068;SDS011;1545;51.728;8.796;2022-08-19T07:11:09;53.93;;;26.37;;
3068;SDS011;1545;51.728;8.796;2022-08-19T07:13:37;44.00;;;26.70;;
3068;SDS011;1545;51.728;8.796;2022-08-19T07:16:07;45.90;;;26.90;;
3068;SDS011;1545;51.728;8.796;2022-08-19T07:18:33;44.47;;;26.47;;
3068;SDS011;1545;51.728;8.796;2022-08-19T07:21:06;49.17;;;27.93;;
3068;SDS011;1545;51.728;8.796;2022-08-19T07:23:38;48.40;;;25.83;;
3068;SDS011;1545;51.728;8.796;2022-08-19T07:26:11;38.63;;;24.00;;
3068;SDS011;1545;51.728;8.796;2022-08-19T07:28:40;42.30;;;25.77;;
3068;SDS011;1545;51.728;8.796;2022-08-19T07:31:10;36.17;;;22.97;;
3068;SDS011;1545;51.728;8.796;2022-08-19T07:33:40;32.60;;;20.87;;
3068;SDS011;1545;51.728;8.796;2022-08-19T07:36:08;32.13;;;18.20;;
3068;SDS011;1545;51.728;8.796;2022-08-19T07:38:36;32.17;;;17.33;;
3068;SDS011;1545;51.728;8.796;2022-08-19T07:41:04;27.33;;;16.92;;
3068;SDS011;1545;51.728;8.796;2022-08-19T07:43:29;22.08;;;16.15;;
3068;SDS011;1545;51.728;8.796;2022-08-19T07:45:55;25.70;;;16.65;;
3068;SDS011;1545;51.728;8.796;2022-08-19T07:48:25;27.25;;;16.10;;
3068;SDS011;1545;51.728;8.796;2022-08-19T07:50:56;25.13;;;17.45;;
3068;SDS011;1545;51.728;8.796;2022-08-19T07:53:29;23.70;;;15.53;;
3068;SDS011;1545;51.728;8.796;2022-08-19T07:55:55;27.00;;;16.50;;
3068;SDS011;1545;51.728;8.796;2022-08-19T07:58:29;24.33;;;16.83;;
3068;SDS011;1545;51.728;8.796;2022-08-19T08:00:56;28.63;;;17.77;;
3068;SDS011;1545;51.728;8.796;2022-08-19T08:03:22;26.07;;;16.73;;
3068;SDS011;1545;51.728;8.796;2022-08-19T08:06:27;26.40;;;16.33;;
3068;SDS011;1545;51.728;8.796;2022-08-19T08:09:13;22.07;;;14.80;;
3068;SDS011;1545;51.728;8.796;2022-08-19T08:12:08;29.40;;;15.67;;
3068;SDS011;1545;51.728;8.796;2022-08-19T08:14:36;28.03;;;15.40;;
3068;SDS011;1545;51.728;8.796;2022-08-19T08:17:06;26.53;;;16.23;;
3068;SDS011;1545;51.728;8.796;2022-08-19T08:19:32;31.00;;;14.70;;
3068;SDS011;1545;51.728;8.796;2022-08-19T08:21:59;21.57;;;14.20;;
3068;SDS011;1545;51.728;8.796;2022-08-19T08:24:29;29.57;;;14.70;;
3068;SDS011;1545;51.728;8.796;2022-08-19T08:26:56;25.97;;;14.13;;
3068;SDS011;1545;51.728;8.796;2022-08-19T08:29:23;26.83;;;14.27;;
3068;SDS011;1545;51.728;8.796;2022-08-19T08:31:50;21.60;;;13.00;;
3068;SDS011;1545;51.728;8.796;2022-08-19T08:34:16;20.05;;;12.85;;
3068;SDS011;1545;51.728;8.796;2022-08-19T08:36:43;22.83;;;13.15;;
3068;SDS011;1545;51.728;8.796;2022-08-19T08:39:11;26.48;;;12.98;;
3068;SDS011;1545;51.728;8.796;2022-08-19T08:41:43;29.83;;;14.07;;
3068;SDS011;1545;51.728;8.796;2022-08-19T08:44:32;23.45;;;13.73;;
3068;SDS011;1545;51.728;8.796;2022-08-19T08:47:06;21.08;;;12.82;;
3068;SDS011;1545;51.728;8.796;2022-08-19T08:49:51;21.77;;;12.40;;
3068;SDS011;1545;51.728;8.796;2022-08-19T08:52:28;19.73;;;12.63;;
3068;SDS011;1545;51.728;8.796;2022-08-19T08:54:57;19.88;;;12.82;;
3068;SDS011;1545;51.728;8.796;2022-08-19T08:57:29;17.30;;;11.63;;
3068;SDS011;1545;51.728;8.796;2022-08-19T09:00:02;17.95;;;11.57;;
3068;SDS011;1545;51.728;8.796;2022-08-19T09:02:31;18.52;;;11.88;;
3068;SDS011;1545;51.728;8.796;2022-08-19T09:04:57;19.20;;;11.97;;
3068;SDS011;1545;51.728;8.796;2022-08-19T09:13:08;13.00;;;10.55;;
3068;SDS011;1545;51.728;8.796;2022-08-19T09:15:45;19.25;;;10.75;;
3068;SDS011;1545;51.728;8.796;2022-08-19T09:18:18;16.27;;;9.63;;
3068;SDS011;1545;51.728;8.796;2022-08-19T09:20:46;14.85;;;8.88;;
3068;SDS011;1545;51.728;8.796;2022-08-19T09:23:12;11.90;;;8.43;;
3068;SDS011;1545;51.728;8.796;2022-08-19T09:25:38;14.63;;;8.27;;
3068;SDS011;1545;51.728;8.796;2022-08-19T09:28:05;13.55;;;7.88;;
3068;SDS011;1545;51.728;8.796;2022-08-19T09:30:38;15.05;;;8.77;;
3068;SDS011;1545;51.728;8.796;2022-08-19T09:33:06;15.93;;;7.47;;
3068;SDS011;1545;51.728;8.796;2022-08-19T09:35:32;13.98;;;7.63;;
3068;SDS011;1545;51.728;8.796;2022-08-19T09:37:58;15.40;;;9.15;;
3068;SDS011;1545;51.728;8.796;2022-08-19T09:40:27;11.00;;;7.68;;
3068;SDS011;1545;51.728;8.796;2022-08-19T09:42:54;10.63;;;6.72;;
3068;SDS011;1545;51.728;8.796;2022-08-19T09:45:20;9.82;;;5.88;;
3068;SDS011;1545;51.728;8.796;2022-08-19T09:47:47;11.23;;;6.70;;
3068;SDS011;1545;51.728;8.796;2022-08-19T09:50:14;15.95;;;8.45;;
3068;SDS011;1545;51.728;8.796;2022-08-19T09:52:39;13.77;;;7.65;;
3068;SDS011;1545;51.728;8.796;2022-08-19T09:55:11;11.38;;;7.05;;
3068;SDS011;1545;51.728;8.796;2022-08-19T09:57:37;8.00;;;7.00;;
3068;SDS011;1545;51.728;8.796;2022-08-19T10:00:03;13.37;;;7.53;;
3068;SDS011;1545;51.728;8.796;2022-08-19T10:02:31;11.23;;;7.40;;
3068;SDS011;1545;51.728;8.796;2022-08-19T10:04:57;10.93;;;7.40;;
3068;SDS011;1545;51.728;8.796;2022-08-19T10:07:50;12.03;;;7.37;;
3068;SDS011;1545;51.728;8.796;2022-08-19T10:10:22;16.10;;;7.13;;
3068;SDS011;1545;51.728;8.796;2022-08-19T10:13:09;10.93;;;7.50;;
3068;SDS011;1545;51.728;8.796;2022-08-19T10:15:35;15.83;;;7.03;;
3068;SDS011;1545;51.728;8.796;2022-08-19T10:18:04;10.53;;;7.17;;
3068;SDS011;1545;51.728;8.796;2022-08-19T10:20:30;10.20;;;5.93;;
3068;SDS011;1545;51.728;8.796;2022-08-19T10:22:56;10.57;;;6.57;;
3068;SDS011;1545;51.728;8.796;2022-08-19T10:25:24;9.73;;;6.90;;
3068;SDS011;1545;51.728;8.796;2022-08-19T10:27:51;13.90;;;7.13;;
3068;SDS011;1545;51.728;8.796;2022-08-19T10:30:19;9.63;;;6.90;;
3068;SDS011;1545;51.728;8.796;2022-08-19T10:32:46;11.30;;;6.70;;
3068;SDS011;1545;51.728;8.796;2022-08-19T10:35:13;8.77;;;6.57;;
3068;SDS011;1545;51.728;8.796;2022-08-19T10:37:38;8.00;;;6.10;;
3068;SDS011;1545;51.728;8.796;2022-08-19T10:40:07;13.47;;;6.60;;
3068;SDS011;1545;51.728;8.796;2022-08-19T10:42:35;11.97;;;7.60;;
3068;SDS011;1545;51.728;8.796;2022-08-19T10:45:01;10.73;;;8.17;;
3068;SDS011;1545;51.728;8.796;2022-08-19T10:47:28;10.50;;;7.30;;
3068;SDS011;1545;51.728;8.796;2022-08-19T10:49:53;9.80;;;7.57;;
3068;SDS011;1545;51.728;8.796;2022-08-19T10:52:39;8.67;;;7.03;;
3068;SDS011;1545;51.728;8.796;2022-08-19T10:55:06;10.00;;;6.87;;
3068;SDS011;1545;51.728;8.796;2022-08-19T10:57:50;8.03;;;6.33;;
3068;SDS011;1545;51.728;8.796;2022-08-19T11:00:17;14.37;;;7.37;;
3068;SDS011;1545;51.728;8.796;2022-08-19T11:02:44;11.13;;;7.87;;
3068;SDS011;1545;51.728;8.796;2022-08-19T11:05:09;15.20;;;7.87;;
3068;SDS011;1545;51.728;8.796;2022-08-19T11:07:36;10.67;;;7.20;;
3068;SDS011;1545;51.728;8.796;2022-08-19T11:10:06;9.80;;;6.63;;
3068;SDS011;1545;51.728;8.796;2022-08-19T11:12:33;10.07;;;6.70;;
3068;SDS011;1545;51.728;8.796;2022-08-19T11:15:01;16.00;;;7.63;;
3068;SDS011;1545;51.728;8.796;2022-08-19T11:17:26;10.40;;;7.70;;
3068;SDS011;1545;51.728;8.796;2022-08-19T11:19:52;10.80;;;7.17;;
3068;SDS011;1545;51.728;8.796;2022-08-19T11:22:17;15.60;;;8.33;;
3068;SDS011;1545;51.728;8.796;2022-08-19T11:24:43;13.03;;;7.53;;
3068;SDS011;1545;51.728;8.796;2022-08-19T11:27:12;14.73;;;7.50;;
3068;SDS011;1545;51.728;8.796;2022-08-19T11:29:38;11.30;;;7.40;;
3068;SDS011;1545;51.728;8.796;2022-08-19T11:32:08;13.43;;;7.90;;
3068;SDS011;1545;51.728;8.796;2022-08-19T11:34:35;8.53;;;6.40;;
3068;SDS011;1545;51.728;8.796;2022-08-19T11:37:04;13.97;;;7.00;;
3068;SDS011;1545;51.728;8.796;2022-08-19T11:39:34;12.53;;;6.67;;
3068;SDS011;1545;51.728;8.796;2022-08-19T11:42:01;9.33;;;6.57;;
3068;SDS011;1545;51.728;8.796;2022-08-19T11:44:48;10.00;;;6.63;;
3068;SDS011;1545;51.728;8.796;2022-08-19T11:47:14;8.63;;;6.77;;
3068;SDS011;1545;51.728;8.796;2022-08-19T11:49:40;13.13;;;6.57;;
3068;SDS011;1545;51.728;8.796;2022-08-19T11:52:07;10.37;;;6.93;;
3068;SDS011;1545;51.728;8.796;2022-08-19T11:54:32;9.10;;;6.17;;
3068;SDS011;1545;51.728;8.796;2022-08-19T11:56:58;10.80;;;6.60;;
3068;SDS011;1545;51.728;8.796;2022-08-19T11:59:24;7.57;;;5.53;;
3068;SDS011;1545;51.728;8.796;2022-08-19T12:01:51;7.17;;;5.43;;
3068;SDS011;1545;51.728;8.796;2022-08-19T12:04:17;6.53;;;4.90;;
3068;SDS011;1545;51.728;8.796;2022-08-19T12:06:44;8.37;;;5.53;;
3068;SDS011;1545;51.728;8.796;2022-08-19T12:09:10;8.77;;;5.17;;
3068;SDS011;1545;51.728;8.796;2022-08-19T12:11:37;10.13;;;5.40;;
3068;SDS011;1545;51.728;8.796;2022-08-19T12:14:04;7.57;;;5.57;;
3068;SDS011;1545;51.728;8.796;2022-08-19T12:16:30;8.07;;;5.00;;
3068;SDS011;1545;51.728;8.796;2022-08-19T12:18:57;7.63;;;5.00;;
3068;SDS011;1545;51.728;8.796;2022-08-19T12:21:28;8.47;;;5.27;;
3068;SDS011;1545;51.728;8.796;2022-08-19T12:23:57;8.70;;;5.27;;
3068;SDS011;1545;51.728;8.796;2022-08-19T12:26:25;6.67;;;4.97;;
3068;SDS011;1545;51.728;8.796;2022-08-19T12:28:51;6.50;;;4.63;;
3068;SDS011;1545;51.728;8.796;2022-08-19T12:31:17;11.43;;;5.17;;
3068;SDS011;1545;51.728;8.796;2022-08-19T12:33:44;5.80;;;4.63;;
3068;SDS011;1545;51.728;8.796;2022-08-19T12:36:11;5.30;;;4.80;;
3068;SDS011;1545;51.728;8.796;2022-08-19T12:38:38;7.43;;;4.13;;
3068;SDS011;1545;51.728;8.796;2022-08-19T12:41:05;7.27;;;3.60;;
3068;SDS011;1545;51.728;8.796;2022-08-19T12:43:34;5.30;;;3.97;;
3068;SDS011;1545;51.728;8.796;2022-08-19T12:46:00;4.93;;;3.73;;
3068;SDS011;1545;51.728;8.796;2022-08-19T12:48:27;9.00;;;4.03;;
3068;SDS011;1545;51.728;8.796;2022-08-19T12:50:52;6.00;;;4.37;;
3068;SDS011;1545;51.728;8.796;2022-08-19T12:53:19;4.80;;;4.13;;
3068;SDS011;1545;51.728;8.796;2022-08-19T12:55:44;4.17;;;3.73;;
3068;SDS011;1545;51.728;8.796;2022-08-19T12:58:10;8.43;;;4.50;;
3068;SDS011;1545;51.728;8.796;2022-08-19T13:00:35;8.03;;;4.90;;
3068;SDS011;1545;51.728;8.796;2022-08-19T13:03:01;6.37;;;4.17;;
3068;SDS011;1545;51.728;8.796;2022-08-19T13:05:28;6.73;;;4.33;;
3068;SDS011;1545;51.728;8.796;2022-08-19T13:07:56;13.37;;;4.73;;
3068;SDS011;1545;51.728;8.796;2022-08-19T13:10:25;9.60;;;5.10;;
3068;SDS011;1545;51.728;8.796;2022-08-19T13:12:53;14.93;;;4.67;;
3068;SDS011;1545;51.728;8.796;2022-08-19T13:15:20;7.93;;;5.47;;
3068;SDS011;1545;51.728;8.796;2022-08-19T13:17:48;8.07;;;4.77;;
3068;SDS011;1545;51.728;8.796;2022-08-19T13:20:16;16.33;;;7.40;;
3068;SDS011;1545;51.728;8.796;2022-08-19T13:22:43;18.77;;;4.50;;
3068;SDS011;1545;51.728;8.796;2022-08-19T13:25:10;9.83;;;5.30;;
3068;SDS011;1545;51.728;8.796;2022-08-19T13:27:37;6.40;;;5.37;;
3068;SDS011;1545;51.728;8.796;2022-08-19T13:30:04;9.60;;;5.47;;
3068;SDS011;1545;51.728;8.796;2022-08-19T13:32:49;8.20;;;5.10;;
3068;SDS011;1545;51.728;8.796;2022-08-19T13:35:33;8.93;;;5.17;;
3068;SDS011;1545;51.728;8.796;2022-08-19T13:37:59;6.37;;;5.00;;
3068;SDS011;1545;51.728;8.796;2022-08-19T13:40:29;9.37;;;5.57;;
3068;SDS011;1545;51.728;8.796;2022-08-19T13:42:56;9.27;;;5.27;;
3068;SDS011;1545;51.728;8.796;2022-08-19T13:45:23;7.10;;;4.83;;
3068;SDS011;1545;51.728;8.796;2022-08-19T13:47:50;7.87;;;4.77;;
3068;SDS011;1545;51.728;8.796;2022-08-19T13:50:19;11.50;;;5.27;;
3068;SDS011;1545;51.728;8.796;2022-08-19T13:52:46;6.73;;;5.50;;
3068;SDS011;1545;51.728;8.796;2022-08-19T13:55:12;5.13;;;4.90;;
3068;SDS011;1545;51.728;8.796;2022-08-19T13:57:39;9.37;;;5.33;;
3068;SDS011;1545;51.728;8.796;2022-08-19T14:00:06;13.37;;;5.43;;
3068;SDS011;1545;51.728;8.796;2022-08-19T14:02:35;8.30;;;5.57;;
3068;SDS011;1545;51.728;8.796;2022-08-19T14:05:03;8.83;;;5.37;;
3068;SDS011;1545;51.728;8.796;2022-08-19T14:07:29;7.47;;;5.07;;
3068;SDS011;1545;51.728;8.796;2022-08-19T14:09:55;6.22;;;5.00;;
3068;SDS011;1545;51.728;8.796;2022-08-19T14:12:21;12.55;;;5.57;;
3068;SDS011;1545;51.728;8.796;2022-08-19T14:14:47;10.55;;;5.43;;
3068;SDS011;1545;51.728;8.796;2022-08-19T14:17:13;7.05;;;5.40;;
3068;SDS011;1545;51.728;8.796;2022-08-19T14:19:38;8.00;;;5.28;;
3068;SDS011;1545;51.728;8.796;2022-08-19T14:22:04;6.85;;;5.63;;
3068;SDS011;1545;51.728;8.796;2022-08-19T14:24:30;7.68;;;5.47;;
3068;SDS011;1545;51.728;8.796;2022-08-19T14:26:57;9.63;;;5.65;;
3068;SDS011;1545;51.728;8.796;2022-08-19T14:29:23;9.18;;;5.60;;
3068;SDS011;1545;51.728;8.796;2022-08-19T14:31:49;11.87;;;5.53;;
3068;SDS011;1545;51.728;8.796;2022-08-19T14:34:15;10.27;;;5.87;;
3068;SDS011;1545;51.728;8.796;2022-08-19T14:36:40;6.72;;;5.68;;
3068;SDS011;1545;51.728;8.796;2022-08-19T14:39:06;13.27;;;5.97;;
3068;SDS011;1545;51.728;8.796;2022-08-19T14:41:32;8.00;;;5.40;;
3068;SDS011;1545;51.728;8.796;2022-08-19T14:43:58;6.70;;;5.47;;
3068;SDS011;1545;51.728;8.796;2022-08-19T14:46:25;7.75;;;5.18;;
3068;SDS011;1545;51.728;8.796;2022-08-19T14:48:52;6.72;;;5.88;;
3068;SDS011;1545;51.728;8.796;2022-08-19T14:51:18;10.07;;;5.43;;
3068;SDS011;1545;51.728;8.796;2022-08-19T14:53:44;8.90;;;5.83;;
3068;SDS011;1545;51.728;8.796;2022-08-19T14:56:14;6.05;;;5.07;;
3068;SDS011;1545;51.728;8.796;2022-08-19T14:58:43;8.85;;;5.75;;
3068;SDS011;1545;51.728;8.796;2022-08-19T15:01:09;8.98;;;5.60;;
3068;SDS011;1545;51.728;8.796;2022-08-19T15:03:36;8.45;;;5.50;;
3068;SDS011;1545;51.728;8.796;2022-08-19T15:06:03;9.23;;;5.82;;
3068;SDS011;1545;51.728;8.796;2022-08-19T15:08:30;8.93;;;6.07;;
3068;SDS011;1545;51.728;8.796;2022-08-19T15:10:58;6.85;;;5.43;;